createdAt,value
2023-03-26T00:01:40.597Z,85.59
2023-03-26T00:04:10.085Z,85.34
2023-03-26T00:06:41.774Z,85.11
2023-03-26T00:09:13.521Z,86.10
2023-03-26T00:11:41.830Z,85.58
2023-03-26T00:14:13.966Z,86.27
2023-03-26T00:16:43.088Z,86.61
2023-03-26T00:19:14.006Z,85.79
2023-03-26T00:21:42.625Z,86.04
2023-03-26T00:24:15.238Z,87.00
2023-03-26T00:26:44.867Z,87.12
2023-03-26T00:29:15.719Z,87.74
2023-03-26T00:31:46.163Z,88.05
2023-03-26T00:34:18.567Z,88.05
2023-03-26T00:36:48.136Z,87.80
2023-03-26T00:39:19.414Z,87.37
2023-03-26T00:41:47.735Z,87.81
2023-03-26T00:44:16.452Z,86.77
2023-03-26T00:46:44.823Z,86.29
2023-03-26T00:49:14.999Z,86.80
2023-03-26T00:51:44.918Z,86.55
2023-03-26T00:54:13.389Z,86.14
2023-03-26T00:56:41.799Z,86.70
2023-03-26T00:59:11.202Z,86.05
2023-03-26T01:01:40.246Z,86.39
2023-03-26T01:04:28.617Z,85.93
2023-03-26T01:07:03.052Z,84.58
2023-03-26T01:09:35.895Z,85.14
2023-03-26T01:12:08.990Z,85.37
2023-03-26T01:14:43.560Z,85.10
2023-03-26T01:17:14.363Z,86.40
2023-03-26T01:19:50.147Z,85.83
2023-03-26T01:22:22.205Z,86.07
2023-03-26T01:24:56.393Z,86.08
2023-03-26T01:27:41.196Z,85.46
2023-03-26T01:30:18.425Z,85.32
2023-03-26T01:37:16.136Z,86.19
2023-03-26T01:39:54.185Z,85.58
2023-03-26T01:42:32.625Z,84.56
2023-03-26T01:45:09.520Z,85.58
2023-03-26T01:47:39.604Z,86.06
2023-03-26T01:50:12.096Z,85.84
2023-03-26T01:52:40.832Z,85.17
2023-03-26T01:55:12.792Z,85.24
2023-03-26T01:57:51.808Z,84.08
2023-03-26T02:00:33.791Z,84.65
2023-03-26T02:03:18.917Z,84.74
2023-03-26T02:05:54.081Z,85.30
2023-03-26T02:08:25.857Z,86.83
2023-03-26T02:10:58.665Z,86.52
2023-03-26T02:13:27.562Z,86.98
2023-03-26T02:15:57.971Z,88.36
2023-03-26T02:18:36.958Z,88.09
2023-03-26T02:21:10.022Z,88.14
2023-03-26T02:23:41.323Z,88.42
2023-03-26T02:26:12.912Z,87.97
2023-03-26T02:28:53.537Z,88.32
2023-03-26T02:31:22.095Z,86.07
2023-03-26T02:33:50.440Z,84.94
2023-03-26T02:36:22.136Z,84.39
2023-03-26T02:38:50.730Z,84.33
2023-03-26T02:41:20.762Z,84.88
2023-03-26T02:43:57.509Z,83.85
2023-03-26T02:46:38.346Z,83.91
2023-03-26T02:49:26.186Z,82.99
2023-03-26T02:51:56.527Z,83.58
2023-03-26T02:54:34.612Z,83.04
2023-03-26T02:57:24.538Z,83.57
2023-03-26T03:00:17.550Z,83.92
2023-03-26T03:02:48.852Z,84.69
2023-03-26T03:05:43.200Z,83.33
2023-03-26T03:08:29.454Z,83.38
2023-03-26T03:11:14.977Z,84.18
2023-03-26T03:13:52.565Z,84.41
2023-03-26T03:16:24.298Z,84.59
2023-03-26T03:18:58.137Z,84.05
2023-03-26T03:21:38.241Z,84.34
2023-03-26T03:24:07.587Z,83.85
2023-03-26T03:26:39.098Z,84.01
2023-03-26T03:29:27.261Z,83.60
2023-03-26T03:31:57.545Z,83.66
2023-03-26T03:35:02.507Z,84.03
2023-03-26T03:37:31.380Z,83.52
2023-03-26T03:40:01.257Z,84.06
2023-03-26T03:42:32.712Z,84.32
2023-03-26T03:45:07.352Z,84.91
2023-03-26T03:48:06.521Z,84.20
2023-03-26T03:50:41.979Z,84.33
2023-03-26T03:53:26.406Z,84.49
2023-03-26T03:55:58.275Z,84.40
2023-03-26T03:58:41.092Z,85.76
2023-03-26T04:01:17.076Z,86.92
2023-03-26T04:04:09.473Z,87.98
2023-03-26T04:06:55.303Z,89.39
2023-03-26T04:09:25.506Z,89.23
2023-03-26T04:11:57.252Z,90.15
2023-03-26T04:14:49.433Z,89.45
2023-03-26T04:17:22.462Z,90.04
2023-03-26T04:19:55.126Z,89.09
2023-03-26T04:22:36.586Z,89.82
2023-03-26T04:25:08.545Z,89.43
2023-03-26T04:27:46.260Z,89.64
2023-03-26T04:30:27.432Z,89.46
2023-03-26T04:33:07.104Z,90.00
2023-03-26T04:35:41.839Z,88.37
2023-03-26T04:38:18.633Z,88.84
2023-03-26T04:40:50.954Z,89.88
2023-03-26T04:43:54.732Z,88.92
2023-03-26T04:46:35.669Z,89.36
2023-03-26T04:49:15.027Z,88.75
2023-03-26T04:51:44.854Z,89.23
2023-03-26T04:54:35.827Z,89.25
2023-03-26T04:57:14.474Z,89.08
2023-03-26T04:59:47.357Z,89.08
2023-03-26T05:02:18.175Z,89.00
2023-03-26T05:04:52.437Z,89.82
2023-03-26T05:07:24.195Z,89.23
2023-03-26T05:09:58.312Z,89.26
2023-03-26T05:12:38.815Z,89.13
2023-03-26T05:15:13.024Z,90.28
2023-03-26T05:18:06.449Z,89.72
2023-03-26T05:20:43.648Z,89.90
2023-03-26T05:23:12.053Z,89.45
2023-03-26T05:25:44.047Z,90.14
2023-03-26T05:28:19.365Z,90.21
2023-03-26T05:31:07.105Z,90.84
2023-03-26T05:33:40.015Z,90.40
2023-03-26T05:36:15.608Z,90.21
2023-03-26T05:38:55.541Z,89.91
2023-03-26T05:41:54.815Z,90.24
2023-03-26T05:44:29.222Z,90.43
2023-03-26T05:46:57.716Z,90.44
2023-03-26T05:49:28.415Z,90.02
2023-03-26T05:51:57.982Z,90.93
2023-03-26T05:54:46.507Z,90.28
2023-03-26T05:57:35.521Z,90.08
2023-03-26T06:00:25.114Z,90.08
2023-03-26T06:02:55.354Z,88.40
2023-03-26T06:06:00.903Z,88.47
2023-03-26T06:09:01.988Z,88.62
2023-03-26T06:11:32.420Z,87.23
2023-03-26T06:14:02.527Z,87.41
2023-03-26T06:16:31.512Z,87.92
2023-03-26T06:19:18.611Z,86.82
2023-03-26T06:22:09.386Z,86.53
2023-03-26T06:24:58.809Z,87.58
2023-03-26T06:27:51.231Z,87.13
2023-03-26T06:30:40.422Z,86.94
2023-03-26T06:33:17.468Z,86.57
2023-03-26T06:35:50.523Z,86.19
2023-03-26T06:38:19.326Z,85.29
2023-03-26T06:40:49.416Z,84.70
2023-03-26T06:43:26.704Z,85.26
2023-03-26T06:45:56.803Z,85.33
2023-03-26T06:48:31.137Z,85.07
2023-03-26T06:51:18.534Z,83.42
2023-03-26T06:54:06.582Z,84.36
2023-03-26T06:57:12.341Z,82.68
2023-03-26T07:00:09.107Z,82.12
2023-03-26T07:02:56.596Z,82.91
2023-03-26T07:05:43.359Z,82.09
2023-03-26T07:08:30.920Z,81.52
2023-03-26T07:11:34.729Z,81.15
2023-03-26T07:14:24.706Z,79.56
2023-03-26T07:17:06.820Z,81.24
2023-03-26T07:19:58.524Z,81.72
2023-03-26T07:22:29.035Z,80.66
2023-03-26T07:25:19.312Z,80.32
2023-03-26T07:28:14.906Z,81.57
2023-03-26T07:31:22.874Z,80.72
2023-03-26T07:34:24.222Z,80.49
2023-03-26T07:37:29.872Z,79.13
2023-03-26T07:40:28.675Z,78.42
2023-03-26T07:43:35.517Z,78.62
2023-03-26T07:46:12.937Z,79.76
2023-03-26T07:48:51.918Z,78.65
2023-03-26T07:51:38.873Z,76.46
2023-03-26T07:54:30.972Z,78.55
2023-03-26T07:57:35.106Z,77.38
2023-03-26T08:00:30.735Z,76.33
2023-03-26T08:03:33.199Z,76.09
2023-03-26T08:06:38.269Z,75.62
2023-03-26T08:10:00.088Z,76.18
2023-03-26T08:12:53.751Z,75.87
2023-03-26T08:15:31.191Z,75.00
2023-03-26T08:18:06.538Z,76.70
2023-03-26T08:20:43.732Z,74.27
2023-03-26T08:23:23.595Z,72.58
2023-03-26T08:26:02.462Z,69.62
2023-03-26T08:28:41.114Z,69.57
2023-03-26T08:31:13.721Z,72.36
2023-03-26T08:33:42.291Z,73.60
2023-03-26T08:36:12.313Z,73.04
2023-03-26T08:38:40.674Z,72.22
2023-03-26T08:41:41.945Z,73.78
2023-03-26T08:44:53.406Z,73.98
2023-03-26T08:48:02.204Z,74.71
2023-03-26T08:51:18.282Z,74.54
2023-03-26T08:54:38.119Z,73.35
2023-03-26T08:57:34.932Z,72.71
2023-03-26T09:00:20.584Z,73.11
2023-03-26T09:03:16.675Z,71.57
2023-03-26T09:06:14.391Z,72.34
2023-03-26T09:09:19.172Z,72.21
2023-03-26T09:12:32.608Z,69.90
2023-03-26T09:15:39.702Z,67.75
2023-03-26T09:18:39.845Z,70.76
2023-03-26T09:21:43.363Z,69.67
2023-03-26T09:24:43.748Z,67.89
2023-03-26T09:27:34.445Z,68.28
2023-03-26T09:30:31.982Z,67.85
2023-03-26T09:36:39.520Z,64.88
2023-03-26T09:39:17.933Z,64.53
2023-03-26T09:42:00.490Z,59.24
2023-03-26T09:45:09.112Z,59.69
2023-03-26T09:48:15.894Z,54.35
2023-03-26T09:51:06.660Z,58.44
2023-03-26T09:53:52.100Z,58.02
2023-03-26T09:56:39.574Z,58.82
2023-03-26T09:59:32.319Z,62.12
2023-03-26T10:02:16.292Z,63.00
2023-03-26T10:05:14.929Z,63.12
2023-03-26T10:08:18.749Z,64.25
2023-03-26T10:10:55.068Z,63.69
2023-03-26T10:13:31.226Z,63.49
2023-03-26T10:16:22.651Z,63.15
2023-03-26T10:19:06.596Z,63.14
2023-03-26T10:21:45.407Z,62.81
2023-03-26T10:24:39.579Z,60.89
2023-03-26T10:27:24.314Z,61.17
2023-03-26T10:30:21.705Z,61.69
2023-03-26T10:32:59.259Z,57.16
2023-03-26T10:35:39.937Z,55.95
2023-03-26T10:38:16.748Z,57.06
2023-03-26T10:41:00.870Z,54.81
2023-03-26T10:44:07.503Z,55.16
2023-03-26T10:47:07.131Z,51.38
2023-03-26T10:49:57.955Z,48.73
2023-03-26T10:52:32.411Z,51.69
2023-03-26T10:55:09.900Z,50.40
2023-03-26T10:57:44.906Z,50.87
2023-03-26T11:00:25.134Z,55.08
2023-03-26T11:03:13.075Z,56.42
2023-03-26T11:05:49.819Z,54.44
2023-03-26T11:08:31.539Z,52.87
2023-03-26T11:11:06.661Z,57.09
2023-03-26T11:13:51.586Z,58.26
2023-03-26T11:16:27.018Z,54.61
2023-03-26T11:19:03.264Z,56.41
2023-03-26T11:21:40.076Z,52.71
2023-03-26T11:24:29.095Z,53.96
2023-03-26T11:27:15.453Z,54.22
2023-03-26T11:29:54.436Z,53.14
2023-03-26T11:32:25.806Z,51.42
2023-03-26T11:35:01.858Z,50.58
2023-03-26T11:37:34.471Z,48.89
2023-03-26T11:42:41.232Z,50.20
2023-03-26T11:45:18.556Z,47.01
2023-03-26T11:47:51.845Z,49.59
2023-03-26T11:50:23.041Z,51.61
2023-03-26T11:52:53.174Z,49.43
2023-03-26T11:55:23.890Z,52.17
2023-03-26T11:57:57.851Z,52.75
2023-03-26T12:00:29.112Z,52.56
2023-03-26T12:02:59.128Z,55.60
2023-03-26T12:05:33.807Z,54.35
2023-03-26T12:08:04.729Z,56.08
2023-03-26T12:10:38.348Z,55.08
2023-03-26T12:13:29.419Z,56.63
2023-03-26T12:16:10.137Z,56.95
2023-03-26T12:18:41.302Z,55.89
2023-03-26T12:21:13.843Z,54.68
2023-03-26T12:23:57.944Z,53.70
2023-03-26T12:26:42.511Z,55.24
2023-03-26T12:29:43.380Z,57.69
2023-03-26T12:32:15.954Z,57.60
2023-03-26T12:34:44.412Z,57.82
2023-03-26T12:37:36.604Z,57.89
2023-03-26T12:40:15.176Z,59.43
2023-03-26T12:44:48.226Z,58.01
2023-03-26T12:45:44.845Z,59.69
2023-03-26T12:48:16.710Z,60.50
2023-03-26T12:50:57.438Z,61.27
2023-03-26T12:53:39.861Z,60.15
2023-03-26T12:56:22.117Z,60.88
2023-03-26T12:59:19.134Z,61.75
2023-03-26T13:01:55.492Z,60.78
2023-03-26T13:04:58.444Z,59.28
2023-03-26T13:07:48.140Z,60.38
2023-03-26T13:10:33.568Z,58.65
2023-03-26T13:13:13.396Z,60.81
2023-03-26T13:15:49.121Z,61.91
2023-03-26T13:18:28.666Z,60.04
2023-03-26T13:21:05.942Z,62.08
2023-03-26T13:23:48.042Z,62.11
2023-03-26T13:26:35.925Z,62.96
2023-03-26T13:29:35.953Z,63.93
2023-03-26T13:32:15.600Z,62.54
2023-03-26T13:35:02.072Z,61.86
2023-03-26T13:37:41.931Z,62.16
2023-03-26T13:40:22.366Z,63.39
2023-03-26T13:43:03.154Z,63.33
2023-03-26T13:45:47.950Z,63.91
2023-03-26T13:48:22.572Z,63.23
2023-03-26T13:51:00.433Z,63.37
2023-03-26T13:53:45.660Z,64.22
2023-03-26T13:56:18.562Z,61.56
2023-03-26T13:58:54.251Z,61.74
2023-03-26T14:01:33.821Z,61.54
2023-03-26T14:04:08.463Z,63.42
2023-03-26T14:06:46.838Z,62.93
2023-03-26T14:09:23.054Z,63.27
2023-03-26T14:12:03.914Z,61.30
2023-03-26T14:15:00.409Z,62.76
2023-03-26T14:17:36.438Z,63.21
2023-03-26T14:20:32.326Z,61.55
2023-03-26T14:23:23.443Z,58.93
2023-03-26T14:26:08.248Z,59.40
2023-03-26T14:29:03.471Z,59.79
2023-03-26T14:31:37.771Z,62.04
2023-03-26T14:34:29.538Z,66.84
2023-03-26T14:37:28.042Z,76.70
2023-03-26T14:40:18.302Z,83.93
2023-03-26T14:42:56.632Z,85.88
2023-03-26T14:45:53.927Z,85.78
2023-03-26T14:48:49.524Z,86.52
2023-03-26T14:51:30.455Z,88.80
2023-03-26T14:54:04.241Z,89.16
2023-03-26T14:57:04.244Z,89.53
2023-03-26T15:00:22.994Z,87.74
2023-03-26T15:03:27.884Z,87.76
2023-03-26T15:06:15.586Z,87.88
2023-03-26T15:09:12.122Z,89.16
2023-03-26T15:11:48.612Z,87.28
2023-03-26T15:14:47.497Z,88.14
2023-03-26T15:20:39.652Z,86.81
2023-03-26T15:23:48.419Z,86.72
2023-03-26T15:27:09.074Z,88.09
2023-03-26T15:30:07.089Z,88.06
2023-03-26T15:33:14.581Z,89.06
2023-03-26T15:36:13.980Z,88.85
2023-03-26T15:39:08.688Z,89.89
2023-03-26T15:41:45.756Z,90.12
2023-03-26T15:44:53.131Z,90.01
2023-03-26T15:47:54.932Z,90.51
2023-03-26T15:50:36.696Z,91.28
2023-03-26T15:53:19.553Z,91.13
2023-03-26T15:56:01.875Z,90.19
2023-03-26T15:58:35.688Z,90.05
2023-03-26T16:01:30.924Z,90.16
2023-03-26T16:04:15.370Z,90.15
2023-03-26T16:06:54.173Z,90.35
2023-03-26T16:09:40.449Z,89.31
2023-03-26T16:12:35.092Z,90.39
2023-03-26T16:15:33.583Z,90.14
2023-03-26T16:18:29.957Z,88.78
2023-03-26T16:21:36.573Z,89.97
2023-03-26T16:24:21.785Z,90.21
2023-03-26T16:27:15.703Z,90.77
2023-03-26T16:30:20.278Z,91.06
2023-03-26T16:32:56.229Z,92.26
2023-03-26T16:35:40.114Z,92.25
2023-03-26T16:38:13.968Z,93.19
2023-03-26T16:41:00.041Z,93.04
2023-03-26T16:44:04.405Z,93.16
2023-03-26T16:46:44.702Z,92.24
2023-03-26T16:49:28.362Z,93.13
2023-03-26T16:52:09.816Z,94.68
2023-03-26T16:54:48.791Z,93.73
2023-03-26T16:57:26.392Z,93.26
2023-03-26T17:00:31.473Z,93.33
2023-03-26T17:03:17.674Z,93.44
2023-03-26T17:06:03.945Z,93.78
2023-03-26T17:08:42.231Z,94.65
2023-03-26T17:11:22.932Z,95.08
2023-03-26T17:14:24.985Z,95.64
2023-03-26T17:17:12.717Z,95.41
2023-03-26T17:19:55.710Z,96.37
2023-03-26T17:22:37.320Z,96.16
2023-03-26T17:25:33.164Z,95.79
2023-03-26T17:28:44.550Z,96.13
2023-03-26T17:31:26.484Z,95.83
2023-03-26T17:33:55.878Z,96.08
2023-03-26T17:36:56.381Z,96.42
2023-03-26T17:40:12.448Z,95.62
2023-03-26T17:43:02.916Z,96.32
2023-03-26T17:45:36.362Z,96.22
2023-03-26T17:48:15.609Z,96.85
2023-03-26T17:50:52.116Z,96.64
2023-03-26T17:53:24.562Z,97.18
2023-03-26T17:55:54.887Z,97.04
2023-03-26T17:58:31.840Z,96.94
2023-03-26T18:01:07.300Z,97.27
2023-03-26T18:03:39.233Z,96.89
2023-03-26T18:06:12.224Z,97.11
2023-03-26T18:09:07.239Z,96.69
2023-03-26T18:12:07.935Z,96.98
2023-03-26T18:14:59.211Z,97.10
2023-03-26T18:17:39.951Z,96.87
2023-03-26T18:20:20.008Z,97.03
2023-03-26T18:22:49.619Z,96.95
2023-03-26T18:25:25.370Z,97.08
2023-03-26T18:27:54.624Z,97.37
2023-03-26T18:30:26.518Z,97.48
2023-03-26T18:33:03.167Z,97.08
2023-03-26T18:35:42.969Z,96.36
2023-03-26T18:38:35.650Z,96.75
2023-03-26T18:41:08.348Z,96.84
2023-03-26T18:43:44.067Z,97.36
2023-03-26T18:46:16.438Z,96.81
2023-03-26T18:48:45.633Z,97.25
2023-03-26T18:51:16.001Z,97.30
2023-03-26T18:53:51.399Z,97.68
2023-03-26T18:56:28.916Z,97.31
2023-03-26T18:58:59.049Z,97.29
2023-03-26T19:01:32.125Z,97.03
2023-03-26T19:04:05.055Z,97.38
2023-03-26T19:06:38.515Z,96.91
2023-03-26T19:09:19.626Z,97.54
2023-03-26T19:11:58.521Z,97.45
2023-03-26T19:14:28.762Z,97.34
2023-03-26T19:17:01.520Z,97.08
2023-03-26T19:19:34.103Z,97.54
2023-03-26T19:22:03.670Z,97.42
2023-03-26T19:24:33.456Z,97.53
2023-03-26T19:27:02.855Z,97.65
2023-03-26T19:29:33.904Z,97.62
2023-03-26T19:32:06.383Z,97.90
2023-03-26T19:34:39.849Z,97.68
2023-03-26T19:37:19.531Z,97.61
2023-03-26T19:39:49.499Z,97.89
2023-03-26T19:42:23.301Z,97.99
2023-03-26T19:44:53.002Z,98.64
2023-03-26T19:50:23.557Z,98.94
2023-03-26T19:51:18.356Z,98.91
2023-03-26T19:53:15.459Z,99.13
2023-03-26T19:55:55.823Z,98.76
2023-03-26T19:58:26.193Z,98.93
2023-03-26T20:00:56.427Z,98.82
2023-03-26T20:03:29.866Z,98.91
2023-03-26T20:05:58.713Z,99.15
2023-03-26T20:08:28.163Z,99.41
2023-03-26T20:10:58.325Z,99.55
2023-03-26T20:13:27.500Z,99.69
2023-03-26T20:16:05.744Z,99.41
2023-03-26T20:18:36.819Z,98.92
2023-03-26T20:21:11.406Z,99.07
2023-03-26T20:23:40.768Z,98.91
2023-03-26T20:26:13.629Z,98.77
2023-03-26T20:28:48.023Z,98.48
2023-03-26T20:31:19.370Z,98.02
2023-03-26T20:33:49.758Z,97.71
2023-03-26T20:36:33.836Z,97.52
2023-03-26T20:39:05.779Z,97.63
2023-03-26T20:41:34.973Z,97.08
2023-03-26T20:44:05.890Z,97.19
2023-03-26T20:46:34.186Z,96.83
2023-03-26T20:49:04.005Z,96.72
2023-03-26T20:51:32.763Z,96.55
2023-03-26T20:54:02.088Z,96.46
2023-03-26T20:56:30.592Z,97.06
2023-03-26T21:01:31.478Z,98.12
2023-03-26T21:04:03.904Z,98.29
2023-03-26T21:06:33.601Z,98.62
2023-03-26T21:09:02.568Z,98.78
2023-03-26T21:11:45.543Z,98.26
2023-03-26T21:14:21.226Z,98.40
2023-03-26T21:16:50.831Z,97.97
2023-03-26T21:19:20.259Z,98.01
2023-03-26T21:21:59.058Z,98.12
2023-03-26T21:24:57.225Z,97.55
2023-03-26T21:27:31.443Z,97.57
2023-03-26T21:30:00.766Z,97.34
2023-03-26T21:32:31.748Z,97.58
2023-03-26T21:35:00.680Z,97.29
2023-03-26T21:37:32.438Z,97.34
2023-03-26T21:40:11.536Z,97.27
2023-03-26T21:42:40.141Z,98.06
2023-03-26T21:45:10.572Z,98.08
2023-03-26T21:47:39.770Z,98.09
2023-03-26T21:50:09.834Z,98.15
2023-03-26T21:52:47.049Z,98.24
2023-03-26T21:55:17.878Z,98.06
2023-03-26T21:58:11.171Z,98.09
2023-03-26T22:00:48.983Z,97.28
2023-03-26T22:03:24.786Z,97.30
2023-03-26T22:05:59.282Z,97.11
2023-03-26T22:08:32.483Z,97.50
2023-03-26T22:11:01.577Z,97.78
2023-03-26T22:13:31.135Z,97.94
2023-03-26T22:15:59.545Z,98.21
2023-03-26T22:18:30.316Z,97.75
2023-03-26T22:20:59.190Z,97.85
2023-03-26T22:23:28.463Z,97.84
2023-03-26T22:25:58.662Z,97.56
2023-03-26T22:28:27.072Z,97.79
2023-03-26T22:30:55.583Z,97.91
2023-03-26T22:33:23.958Z,97.76
2023-03-26T22:35:54.118Z,97.93
2023-03-26T22:38:22.201Z,98.40
2023-03-26T22:40:57.956Z,98.08
2023-03-26T22:43:26.254Z,97.99
2023-03-26T22:45:55.184Z,98.37
2023-03-26T22:48:24.549Z,98.71
2023-03-26T22:51:01.054Z,98.83
2023-03-26T22:53:30.079Z,98.57
2023-03-26T22:56:00.457Z,98.40
2023-03-26T22:58:29.365Z,98.09
2023-03-26T23:01:05.505Z,97.89
2023-03-26T23:03:35.848Z,96.15
2023-03-26T23:06:06.526Z,95.38
2023-03-26T23:08:35.522Z,96.01
2023-03-26T23:11:09.761Z,96.06
2023-03-26T23:13:38.186Z,95.91
2023-03-26T23:16:07.672Z,96.29
2023-03-26T23:18:37.105Z,96.33
2023-03-26T23:21:12.131Z,96.67
2023-03-26T23:23:40.988Z,95.95
2023-03-26T23:26:11.237Z,96.21
2023-03-26T23:28:41.045Z,96.49
2023-03-26T23:31:12.422Z,96.20
2023-03-26T23:33:45.683Z,95.60
2023-03-26T23:36:17.953Z,95.56
2023-03-26T23:38:48.562Z,95.96
2023-03-26T23:41:21.631Z,95.71
2023-03-26T23:43:55.781Z,96.14
2023-03-26T23:46:30.864Z,95.75
2023-03-26T23:49:02.656Z,95.96
2023-03-26T23:54:25.598Z,95.95
2023-03-26T23:56:57.901Z,95.57
2023-03-26T23:59:26.053Z,95.88
